Starrville, Texas
Current Conditions -  °F | °C
As of 9:53 AM on Wednesday 22 Oct 2014 (Local Time) from KTYR Reporting Station
Clear Clear  
Wind Chill: 70°   Ceiling: Unl
Heat Index: 70°   Visibility: 9mi
Dew Point: 62°   Wind: 6mph
Humidity: 76%   Direction: 100°E
Pressure: 30.17"   Gusts: NA
Location:  32.4644°N, 95.1125°W
Report Text: KTYR 221453Z 10005KT 9SM CLR 21/17 A3017 RMK AO2 SLP210 T02110167 51019
Loading
Personal Weather Stations






























Interactive Weather Map
Tropical Storm Tracking
New forecast layout! Learn more

10-Day Weather Forecast

Advertisements
Track Severe Weather on mobile